Time;durP1;ratioP1;P1;durP2;ratioP2;P2;SDS_P1;SDS_P2;PMS_P1;PMS_P2;Temp;Humidity;BMP_temperature;BMP_pressure;BME280_temperature;BME280_humidity;BME280_pressure;Samples;Min_cycle;Max_cycle;Signal;HPM_P1;HPM_P2
2021/11/11 00:05:09;;;;;;;69.9;84;;;;;;;1.1;82.5;99750;;;;
2021/11/11 00:15:08;;;;;;;44.8;58.8;;;;;;;1.2;82.7;99750;;;;
2021/11/11 00:25:08;;;;;;;44.8;58.8;;;;;;;1.1;82.4;99740;;;;
2021/11/11 00:35:08;;;;;;;44.8;58.8;;;;;;;1.2;82.6;99740;;;;
2021/11/11 00:45:08;;;;;;;41;51.1;;;;;;;1.1;82.1;99730;;;;
2021/11/11 00:55:10;;;;;;;41;51.1;;;;;;;1;81.5;99740;;;;
2021/11/11 01:05:08;;;;;;;41;51.1;;;;;;;0.8;81.2;99730;;;;
2021/11/11 01:15:08;;;;;;;52.6;62.6;;;;;;;0.7;81.3;99720;;;;
2021/11/11 01:25:08;;;;;;;52.6;62.6;;;;;;;0.7;81.6;99720;;;;
2021/11/11 01:35:09;;;;;;;52.6;62.6;;;;;;;0.6;81.6;99720;;;;
2021/11/11 01:45:08;;;;;;;40.9;50.1;;;;;;;0.7;82.1;99710;;;;
2021/11/11 01:55:08;;;;;;;40.9;50.1;;;;;;;0.8;82.8;99700;;;;
2021/11/11 02:05:08;;;;;;;40.9;50.1;;;;;;;1;83;99690;;;;
2021/11/11 02:15:08;;;;;;;37.8;45.2;;;;;;;1.1;82.9;99690;;;;
2021/11/11 02:25:08;;;;;;;37.8;45.2;;;;;;;1;82;99690;;;;
2021/11/11 02:35:08;;;;;;;37.8;45.2;;;;;;;0.8;81.2;99710;;;;
2021/11/11 02:45:08;;;;;;;50.7;58.5;;;;;;;0.7;80.9;99700;;;;
2021/11/11 02:55:08;;;;;;;50.7;58.5;;;;;;;0.6;81.8;99680;;;;
2021/11/11 03:06:08;;;;;;;50.7;58.5;;;;;;;0.6;83.2;99680;;;;
2021/11/11 03:17:08;;;;;;;49.3;63.6;;;;;;;0.6;82.6;99670;;;;
2021/11/11 03:27:08;;;;;;;49.3;63.6;;;;;;;0.5;82.6;99640;;;;
2021/11/11 03:37:08;;;;;;;49.3;63.6;;;;;;;0.5;82.2;99650;;;;
2021/11/11 03:47:08;;;;;;;37.9;50.4;;;;;;;0.5;81.8;99640;;;;
2021/11/11 03:57:08;;;;;;;37.9;50.4;;;;;;;0.5;81.7;99640;;;;
2021/11/11 04:07:08;;;;;;;37.9;50.4;;;;;;;0.4;81.6;99630;;;;
2021/11/11 04:17:08;;;;;;;46.6;58.5;;;;;;;0.3;81.6;99640;;;;
2021/11/11 04:27:13;;;;;;;46.6;58.5;;;;;;;0.2;81.6;99640;;;;
2021/11/11 04:37:24;;;;;;;46.6;58.5;;;;;;;0.2;81.6;99630;;;;
2021/11/11 04:47:23;;;;;;;45.8;56.8;;;;;;;0.2;81.5;99630;;;;
2021/11/11 05:07:08;;;;;;;45.8;56.8;;;;;;;0.1;81.5;99620;;;;
2021/11/11 05:17:08;;;;;;;43.7;55.1;;;;;;;0.2;82.1;99620;;;;
2021/11/11 05:27:11;;;;;;;43.7;55.1;;;;;;;0.1;81.8;99620;;;;
2021/11/11 05:37:10;;;;;;;43.7;55.1;;;;;;;0;81.4;99620;;;;
2021/11/11 05:47:08;;;;;;;44.4;58.3;;;;;;;0;81.8;99610;;;;
2021/11/11 05:57:08;;;;;;;44.4;58.3;;;;;;;-0.2;81.8;99630;;;;
2021/11/11 06:07:08;;;;;;;44.4;58.3;;;;;;;-0.1;81.6;99640;;;;
2021/11/11 06:17:09;;;;;;;36.4;46.2;;;;;;;-0.2;81.3;99610;;;;
2021/11/11 06:27:08;;;;;;;36.4;46.2;;;;;;;-0.1;81.8;99620;;;;
2021/11/11 06:37:08;;;;;;;36.4;46.2;;;;;;;0.1;81.9;99620;;;;
2021/11/11 06:47:08;;;;;;;41.1;51.2;;;;;;;0.4;81.8;99600;;;;
2021/11/11 06:57:08;;;;;;;41.1;51.2;;;;;;;0.4;81.5;99600;;;;
2021/11/11 07:07:09;;;;;;;41.1;51.2;;;;;;;0.5;81.4;99620;;;;
2021/11/11 07:17:08;;;;;;;56.1;68.8;;;;;;;0.6;81.2;99620;;;;
2021/11/11 07:27:08;;;;;;;56.1;68.8;;;;;;;1.1;82.1;99600;;;;
2021/11/11 07:37:08;;;;;;;56.1;68.8;;;;;;;1.6;82.2;99600;;;;
2021/11/11 07:47:09;;;;;;;60.3;72;;;;;;;2;81.8;99610;;;;
2021/11/11 07:57:09;;;;;;;60.3;72;;;;;;;2.4;82.2;99600;;;;
2021/11/11 08:07:08;;;;;;;60.3;72;;;;;;;3;82.1;99570;;;;
2021/11/11 08:17:10;;;;;;;71.5;80.3;;;;;;;3.6;81.1;99580;;;;
2021/11/11 08:27:08;;;;;;;71.5;80.3;;;;;;;3.9;80.3;99580;;;;
2021/11/11 08:37:08;;;;;;;71.5;80.3;;;;;;;4.3;78.4;99580;;;;
2021/11/11 08:47:09;;;;;;;69.2;83.3;;;;;;;4.9;79;99580;;;;
2021/11/11 08:57:08;;;;;;;69.2;83.3;;;;;;;5.3;77.8;99570;;;;
2021/11/11 09:08:09;;;;;;;69.2;83.3;;;;;;;5.7;77;99580;;;;
2021/11/11 09:18:09;;;;;;;59.4;71;;;;;;;6;76.7;99570;;;;
2021/11/11 09:28:08;;;;;;;59.4;71;;;;;;;6.6;76.5;99550;;;;
2021/11/11 09:38:08;;;;;;;59.4;71;;;;;;;7.1;75.3;99520;;;;
2021/11/11 09:48:08;;;;;;;48.1;55.5;;;;;;;7.4;72.9;99500;;;;
2021/11/11 09:58:41;;;;;;;48.1;55.5;;;;;;;8.1;71;99490;;;;
2021/11/11 10:08:08;;;;;;;48.1;55.5;;;;;;;8.3;68.3;99490;;;;
2021/11/11 10:18:08;;;;;;;29.9;35.8;;;;;;;8.9;67.4;99500;;;;
2021/11/11 10:28:08;;;;;;;29.9;35.8;;;;;;;9.1;64.6;99490;;;;
2021/11/11 10:38:08;;;;;;;29.9;35.8;;;;;;;9.3;63.1;99480;;;;
2021/11/11 10:48:08;;;;;;;26.3;31.6;;;;;;;9.7;62.9;99470;;;;
2021/11/11 10:58:09;;;;;;;26.3;31.6;;;;;;;10;61.9;99450;;;;
2021/11/11 11:08:08;;;;;;;26.3;31.6;;;;;;;10.2;60.4;99450;;;;
2021/11/11 11:18:09;;;;;;;23.9;28;;;;;;;10.4;59;99460;;;;
2021/11/11 11:28:08;;;;;;;23.9;28;;;;;;;10.6;57.8;99460;;;;
2021/11/11 11:38:08;;;;;;;23.9;28;;;;;;;10.6;57.5;99460;;;;
2021/11/11 11:48:18;;;;;;;15.8;19.7;;;;;;;11.1;58;99460;;;;
2021/11/11 11:58:11;;;;;;;15.8;19.7;;;;;;;11.3;56.8;99460;;;;
2021/11/11 12:08:18;;;;;;;15.8;19.7;;;;;;;11.4;56.4;99460;;;;
2021/11/11 12:18:26;;;;;;;16.1;19.8;;;;;;;11.4;56.2;99460;;;;
2021/11/11 12:28:58;;;;;;;16.1;19.8;;;;;;;11.5;58.3;99470;;;;
2021/11/11 12:39:09;;;;;;;16.1;19.8;;;;;;;11.4;59;99450;;;;
2021/11/11 12:49:09;;;;;;;20.7;25.8;;;;;;;11.4;59.1;99450;;;;
2021/11/11 12:59:09;;;;;;;20.7;25.8;;;;;;;11.4;60.2;99450;;;;
2021/11/11 13:09:09;;;;;;;20.7;25.8;;;;;;;11.5;60.1;99450;;;;
2021/11/11 13:19:09;;;;;;;26.6;30.8;;;;;;;11.5;60.9;99460;;;;
2021/11/11 13:59:19;;;;;;;27.9;34.6;;;;;;;10.9;62.5;99450;;;;
2021/11/11 15:20:31;;;;;;;25.7;30.2;;;;;;;7.8;69.2;99440;;;;
2021/11/11 16:01:12;;;;;;;29.3;33.4;;;;;;;6.5;73.5;99460;;;;
2021/11/11 16:21:17;;;;;;;40.8;49.2;;;;;;;6.6;74.6;99460;;;;
2021/11/11 16:31:09;;;;;;;40.8;49.2;;;;;;;6.7;74.5;99470;;;;
2021/11/11 16:41:09;;;;;;;40.8;49.2;;;;;;;6.9;74.5;99480;;;;
2021/11/11 16:51:09;;;;;;;41.3;50.5;;;;;;;7;73.9;99480;;;;
2021/11/11 17:01:09;;;;;;;41.3;50.5;;;;;;;7.1;73.8;99490;;;;
2021/11/11 17:11:09;;;;;;;41.3;50.5;;;;;;;7.2;73.6;99500;;;;
2021/11/11 17:22:14;;;;;;;47.6;61.8;;;;;;;7.3;73.6;99510;;;;
2021/11/11 17:32:09;;;;;;;47.6;61.8;;;;;;;7.2;74;99500;;;;
2021/11/11 17:42:09;;;;;;;47.6;61.8;;;;;;;7.1;74.3;99500;;;;
2021/11/11 17:52:15;;;;;;;46.1;54.8;;;;;;;7;74.3;99500;;;;
2021/11/11 18:02:15;;;;;;;46.1;54.8;;;;;;;6.9;74.8;99490;;;;
2021/11/11 18:12:09;;;;;;;46.1;54.8;;;;;;;6.7;75.3;99490;;;;
2021/11/11 18:23:09;;;;;;;43.4;52.2;;;;;;;6.6;76.1;99490;;;;
2021/11/11 18:34:15;;;;;;;43.4;52.2;;;;;;;6.6;76.6;99490;;;;
2021/11/11 18:44:09;;;;;;;50.4;59.2;;;;;;;6.4;77.1;99490;;;;
2021/11/11 18:54:09;;;;;;;50.4;59.2;;;;;;;6.2;77.1;99500;;;;
2021/11/11 19:04:11;;;;;;;50.4;59.2;;;;;;;6.1;77;99500;;;;
2021/11/11 19:14:10;;;;;;;56.1;66.8;;;;;;;5.7;77;99500;;;;
2021/11/11 19:24:09;;;;;;;56.1;66.8;;;;;;;5.4;77.1;99500;;;;
2021/11/11 19:34:12;;;;;;;56.1;66.8;;;;;;;5.3;78.2;99500;;;;
2021/11/11 19:44:21;;;;;;;56.5;71.1;;;;;;;5.3;79.5;99500;;;;
2021/11/11 19:54:18;;;;;;;56.5;71.1;;;;;;;5.2;79.2;99510;;;;
2021/11/11 20:05:51;;;;;;;56.5;71.1;;;;;;;4.9;79;99510;;;;
2021/11/11 20:15:43;;;;;;;61.8;74.8;;;;;;;4.7;79.1;99510;;;;
2021/11/11 20:35:34;;;;;;;61.8;74.8;;;;;;;4.5;80.4;99510;;;;
2021/11/11 20:45:21;;;;;;;53.8;62.6;;;;;;;4.5;81.6;99510;;;;
2021/11/11 20:55:49;;;;;;;53.8;62.6;;;;;;;4.5;81;99510;;;;
2021/11/11 21:05:12;;;;;;;53.8;62.6;;;;;;;4.3;80.3;99520;;;;
2021/11/11 21:15:14;;;;;;;46.3;52.4;;;;;;;4.2;81;99520;;;;
2021/11/11 21:26:09;;;;;;;46.3;52.4;;;;;;;4.3;81.9;99520;;;;
2021/11/11 21:36:16;;;;;;;46.3;52.4;;;;;;;4.2;81.8;99530;;;;
2021/11/11 21:46:09;;;;;;;52.3;60.8;;;;;;;4.2;81.8;99540;;;;
2021/11/11 21:56:17;;;;;;;52.3;60.8;;;;;;;4.2;82.3;99540;;;;
2021/11/11 22:26:20;;;;;;;54.1;63.4;;;;;;;4;82.8;99530;;;;
2021/11/11 22:37:09;;;;;;;54.1;63.4;;;;;;;4;83.3;99540;;;;
2021/11/11 22:47:09;;;;;;;51.2;63.8;;;;;;;4;83.1;99540;;;;
2021/11/11 22:57:22;;;;;;;51.2;63.8;;;;;;;4;83;99540;;;;
2021/11/11 23:07:20;;;;;;;51.2;63.8;;;;;;;3.9;83.1;99540;;;;
2021/11/11 23:17:23;;;;;;;50.9;62.8;;;;;;;3.8;83;99540;;;;
2021/11/11 23:27:19;;;;;;;50.9;62.8;;;;;;;3.7;83.7;99540;;;;
2021/11/11 23:37:10;;;;;;;50.9;62.8;;;;;;;3.7;83.6;99530;;;;
2021/11/11 23:47:14;;;;;;;54.5;66.5;;;;;;;3.7;83.4;99510;;;;
